Time;durP1;ratioP1;P1;durP2;ratioP2;P2;SDS_P1;SDS_P2;PMS_P1;PMS_P2;Temp;Humidity;BMP_temperature;BMP_pressure;BME280_temperature;BME280_humidity;BME280_pressure;Samples;Min_cycle;Max_cycle;Signal;HPM_P1;HPM_P2
2022/03/19 00:02:24;;;;;;;56.57;28.77;;;6.50;55.00;;;;;;5069814;28;20260;-58
2022/03/19 00:04:51;;;;;;;59.83;29.63;;;6.40;55.00;;;;;;5063122;28;20741;-58
2022/03/19 00:07:17;;;;;;;54.83;28.00;;;6.40;55.20;;;;;;5066527;28;20198;-58
2022/03/19 00:09:43;;;;;;;56.33;29.17;;;6.40;55.30;;;;;;5068482;28;20481;-58
2022/03/19 00:12:12;;;;;;;57.67;29.33;;;6.40;55.50;;;;;;5073549;28;20189;-58
2022/03/19 00:14:37;;;;;;;60.27;30.90;;;6.40;55.70;;;;;;5069925;28;20237;-58
2022/03/19 00:17:04;;;;;;;54.70;30.87;;;6.40;55.80;;;;;;5058456;28;20504;-58
2022/03/19 00:19:30;;;;;;;51.70;28.20;;;6.30;56.40;;;;;;5082459;28;20238;-59
2022/03/19 00:21:55;;;;;;;59.03;29.67;;;6.30;56.00;;;;;;5091298;28;20409;-59
2022/03/19 00:24:21;;;;;;;53.37;28.33;;;6.20;56.20;;;;;;5084979;28;20414;-59
2022/03/19 00:26:47;;;;;;;59.80;30.80;;;6.20;56.30;;;;;;5066984;28;20174;-58
2022/03/19 00:29:12;;;;;;;57.67;28.20;;;6.20;56.40;;;;;;5069643;28;20283;-58
2022/03/19 00:31:38;;;;;;;59.37;30.07;;;6.20;56.60;;;;;;5069555;28;20404;-58
2022/03/19 00:34:04;;;;;;;54.87;31.27;;;6.20;56.70;;;;;;5069018;28;20194;-57
2022/03/19 00:36:30;;;;;;;58.37;31.40;;;6.10;56.70;;;;;;5067905;28;20232;-58
2022/03/19 00:38:55;;;;;;;55.13;29.20;;;6.10;56.70;;;;;;5069956;28;20182;-58
2022/03/19 00:41:21;;;;;;;64.27;30.63;;;6.10;56.90;;;;;;5066922;28;20178;-58
2022/03/19 00:43:47;;;;;;;60.33;28.60;;;6.10;57.00;;;;;;5069016;28;20244;-58
2022/03/19 00:46:15;;;;;;;57.63;29.57;;;6.00;56.90;;;;;;5064181;28;20882;-58
2022/03/19 00:48:41;;;;;;;51.83;28.60;;;6.00;56.80;;;;;;5070851;28;20453;-58
2022/03/19 00:51:07;;;;;;;51.73;29.47;;;6.00;56.90;;;;;;5061955;28;20498;-58
2022/03/19 00:53:32;;;;;;;60.83;30.63;;;6.00;56.70;;;;;;5067159;28;20452;-58
2022/03/19 00:55:58;;;;;;;62.47;31.23;;;6.00;56.70;;;;;;5068164;28;20235;-59
2022/03/19 00:58:23;;;;;;;52.10;29.00;;;6.00;57.00;;;;;;5069183;28;20269;-58
2022/03/19 01:00:49;;;;;;;62.00;30.20;;;6.00;57.00;;;;;;5063329;28;20235;-59
2022/03/19 01:03:15;;;;;;;63.03;32.63;;;5.90;57.20;;;;;;5068038;28;20718;-58
2022/03/19 01:05:42;;;;;;;59.30;30.57;;;5.90;57.30;;;;;;5065448;28;20201;-57
2022/03/19 01:08:08;;;;;;;63.63;30.53;;;5.90;57.50;;;;;;5066629;28;20464;-58
2022/03/19 01:10:35;;;;;;;62.80;31.07;;;5.80;57.50;;;;;;5067412;28;20427;-59
2022/03/19 01:13:03;;;;;;;56.77;29.97;;;5.80;57.70;;;;;;5068906;28;20448;-58
2022/03/19 01:15:29;;;;;;;55.43;30.63;;;5.80;57.70;;;;;;5069597;28;20550;-58
2022/03/19 01:17:54;;;;;;;62.87;31.70;;;5.80;57.70;;;;;;5066784;28;20519;-59
2022/03/19 01:20:21;;;;;;;64.13;31.27;;;5.80;57.70;;;;;;5066373;28;20186;-58
2022/03/19 01:22:48;;;;;;;61.47;31.50;;;5.80;57.80;;;;;;5068766;28;20821;-58
2022/03/19 01:25:15;;;;;;;56.80;30.67;;;5.80;57.70;;;;;;5069187;28;20424;-58
2022/03/19 01:27:42;;;;;;;60.93;29.70;;;5.80;57.60;;;;;;5064935;28;20835;-59
2022/03/19 01:30:13;;;;;;;53.83;29.60;;;5.80;57.30;;;;;;5068020;28;20441;-59
2022/03/19 01:32:40;;;;;;;63.17;30.00;;;5.80;57.20;;;;;;5069294;28;20471;-59
2022/03/19 01:35:07;;;;;;;58.03;31.07;;;5.80;57.00;;;;;;5064653;28;20437;-59
2022/03/19 01:37:33;;;;;;;55.80;29.27;;;5.80;56.90;;;;;;5065009;28;20799;-58
2022/03/19 01:39:58;;;;;;;59.13;30.30;;;5.80;57.00;;;;;;5068972;28;20431;-60
2022/03/19 01:42:26;;;;;;;64.70;31.77;;;5.80;56.90;;;;;;5069435;28;20729;-58
2022/03/19 01:44:53;;;;;;;58.57;30.33;;;5.80;56.90;;;;;;5062793;28;20187;-57
2022/03/19 01:47:19;;;;;;;63.53;31.50;;;5.80;56.80;;;;;;5064639;28;20526;-58
2022/03/19 01:49:44;;;;;;;56.47;29.67;;;5.80;56.70;;;;;;5073830;28;20930;-59
2022/03/19 01:52:10;;;;;;;60.37;31.47;;;5.80;56.80;;;;;;5066396;28;20208;-58
2022/03/19 01:54:40;;;;;;;65.13;32.17;;;5.80;57.00;;;;;;5066056;28;20181;-58
2022/03/19 01:57:07;;;;;;;69.97;33.40;;;5.80;57.10;;;;;;5066659;28;20205;-58
2022/03/19 01:59:35;;;;;;;69.57;33.60;;;5.70;57.10;;;;;;5067489;28;20507;-59
2022/03/19 02:02:03;;;;;;;79.00;33.90;;;5.70;57.20;;;;;;5054405;28;20432;-58
2022/03/19 02:04:29;;;;;;;70.20;33.40;;;5.70;57.40;;;;;;5065239;28;20436;-58
2022/03/19 02:06:55;;;;;;;75.03;36.73;;;5.70;57.20;;;;;;5064674;28;20937;-58
2022/03/19 02:09:22;;;;;;;67.63;34.37;;;5.70;57.30;;;;;;5063822;28;20494;-58
2022/03/19 02:11:48;;;;;;;74.73;34.30;;;5.70;57.40;;;;;;5066644;28;20460;-58
2022/03/19 02:14:15;;;;;;;68.17;35.00;;;5.70;57.50;;;;;;5066732;28;20761;-59
2022/03/19 02:16:41;;;;;;;68.17;35.07;;;5.70;57.60;;;;;;5067335;28;20174;-57
2022/03/19 02:19:06;;;;;;;67.13;34.70;;;5.70;57.70;;;;;;5064075;28;20810;-58
2022/03/19 02:21:44;;;;;;;61.57;32.50;;;5.60;57.70;;;;;;5066726;28;20432;-57
2022/03/19 02:26:55;;;;;;;70.93;33.70;;;5.60;57.70;;;;;;5064665;28;20442;-58
2022/03/19 02:29:21;;;;;;;64.87;33.07;;;5.60;57.50;;;;;;5070387;28;20428;-58
2022/03/19 02:31:50;;;;;;;65.23;35.23;;;5.60;57.40;;;;;;5070587;28;20432;-58
2022/03/19 02:34:16;;;;;;;67.93;36.23;;;5.60;57.50;;;;;;5068981;28;20507;-57
2022/03/19 02:36:41;;;;;;;67.07;34.27;;;5.60;57.60;;;;;;5065644;28;20476;-58
2022/03/19 02:39:17;;;;;;;72.17;34.13;;;5.60;57.70;;;;;;5071129;28;20217;-58
2022/03/19 02:41:47;;;;;;;63.43;35.10;;;5.60;58.00;;;;;;5071395;28;20174;-56
2022/03/19 02:44:16;;;;;;;70.90;36.20;;;5.50;58.00;;;;;;5069054;28;20890;-57
2022/03/19 02:47:05;;;;;;;69.27;35.73;;;5.50;58.30;;;;;;5068144;28;20478;-57
2022/03/19 02:49:31;;;;;;;64.13;34.00;;;5.50;58.60;;;;;;5071648;28;20423;-58
2022/03/19 02:51:57;;;;;;;76.23;35.37;;;5.50;58.60;;;;;;5067893;28;20432;-58
2022/03/19 02:54:28;;;;;;;76.57;35.30;;;5.50;58.50;;;;;;5062186;28;20470;-58
2022/03/19 02:56:55;;;;;;;70.97;36.87;;;5.40;58.50;;;;;;5063818;28;20433;-56
2022/03/19 02:59:26;;;;;;;68.87;35.20;;;5.40;58.70;;;;;;5058335;28;20922;-58
2022/03/19 03:02:03;;;;;;;73.97;34.80;;;5.40;58.80;;;;;;5069478;28;20419;-58
2022/03/19 03:04:30;;;;;;;69.40;36.73;;;5.30;58.90;;;;;;5068683;28;20437;-57
2022/03/19 03:06:58;;;;;;;67.20;34.93;;;5.30;58.90;;;;;;5064775;28;20434;-58
2022/03/19 03:09:25;;;;;;;74.13;35.73;;;5.30;59.00;;;;;;5068962;28;20418;-57
2022/03/19 03:11:52;;;;;;;71.30;35.27;;;5.30;59.10;;;;;;5071870;28;20419;-58
2022/03/19 03:14:21;;;;;;;67.90;34.97;;;5.30;59.10;;;;;;5064993;28;20972;-57
2022/03/19 03:16:51;;;;;;;70.20;36.53;;;5.30;59.20;;;;;;5068923;28;20445;-58
2022/03/19 03:19:17;;;;;;;75.93;35.23;;;5.30;59.30;;;;;;5068616;28;20420;-57
2022/03/19 03:21:45;;;;;;;64.63;34.47;;;5.30;59.50;;;;;;5069046;28;20409;-59
2022/03/19 03:24:12;;;;;;;74.77;34.87;;;5.30;59.70;;;;;;5067313;28;20448;-58
2022/03/19 03:26:38;;;;;;;78.57;34.60;;;5.30;59.80;;;;;;5070733;28;20425;-58
2022/03/19 03:29:05;;;;;;;75.13;35.30;;;5.30;59.90;;;;;;5069628;28;20575;-59
2022/03/19 03:31:31;;;;;;;76.57;35.23;;;5.20;59.80;;;;;;5065614;28;20430;-59
2022/03/19 03:33:57;;;;;;;74.47;35.73;;;5.20;59.80;;;;;;5068581;28;20453;-58
2022/03/19 03:36:23;;;;;;;75.93;36.50;;;5.20;59.90;;;;;;5069222;28;20417;-58
2022/03/19 03:38:49;;;;;;;70.03;33.40;;;5.20;60.00;;;;;;5065037;28;20997;-58
2022/03/19 03:41:15;;;;;;;68.47;34.60;;;5.20;60.00;;;;;;5068831;28;20202;-59
2022/03/19 03:43:41;;;;;;;74.57;34.80;;;5.20;60.10;;;;;;5067620;28;20525;-58
2022/03/19 03:46:07;;;;;;;62.80;33.77;;;5.20;60.10;;;;;;5068804;28;20429;-58
2022/03/19 03:48:36;;;;;;;74.63;34.00;;;5.20;60.20;;;;;;5068420;28;20674;-58
2022/03/19 03:51:03;;;;;;;64.47;34.27;;;5.20;60.20;;;;;;5060365;28;20456;-57
2022/03/19 03:53:30;;;;;;;63.70;33.50;;;5.20;60.30;;;;;;5065572;28;21052;-58
2022/03/19 03:55:57;;;;;;;68.90;35.90;;;5.10;60.10;;;;;;5068672;28;20949;-57
2022/03/19 03:58:24;;;;;;;66.10;33.27;;;5.10;60.30;;;;;;5070509;28;20437;-58
2022/03/19 04:00:52;;;;;;;60.27;34.53;;;5.10;60.40;;;;;;5070167;28;21086;-59
2022/03/19 04:03:18;;;;;;;70.57;35.43;;;5.10;60.40;;;;;;5066684;28;20471;-57
2022/03/19 04:05:45;;;;;;;62.77;34.40;;;5.10;60.50;;;;;;5066160;28;20582;-58
2022/03/19 04:08:11;;;;;;;77.03;34.53;;;5.10;60.50;;;;;;5067539;28;20535;-57
2022/03/19 04:10:36;;;;;;;68.43;33.80;;;5.00;60.70;;;;;;5068082;28;20173;-57
2022/03/19 04:13:02;;;;;;;79.73;37.57;;;5.00;60.90;;;;;;5066361;28;20445;-58
2022/03/19 04:15:28;;;;;;;69.43;34.57;;;5.00;61.10;;;;;;5070516;28;20170;-58
2022/03/19 04:17:54;;;;;;;67.10;33.37;;;5.00;61.30;;;;;;5078856;28;20209;-58
2022/03/19 04:20:21;;;;;;;70.60;34.30;;;5.00;61.60;;;;;;5069459;28;20559;-57
2022/03/19 04:22:47;;;;;;;66.87;36.27;;;4.90;61.70;;;;;;5067000;28;20230;-58
2022/03/19 04:25:21;;;;;;;68.90;35.10;;;4.90;62.00;;;;;;5067263;28;20957;-58
2022/03/19 04:27:49;;;;;;;75.63;35.90;;;4.80;62.30;;;;;;5070253;28;20445;-58
2022/03/19 04:30:16;;;;;;;74.43;39.23;;;4.80;62.80;;;;;;5069593;28;20421;-57
2022/03/19 04:32:50;;;;;;;76.70;37.40;;;4.80;63.00;;;;;;5066909;28;20448;-58
2022/03/19 04:38:10;;;;;;;71.00;35.60;;;4.80;63.40;;;;;;5061279;28;20478;-58
2022/03/19 04:40:37;;;;;;;73.13;37.03;;;4.80;63.90;;;;;;5068157;28;20459;-58
2022/03/19 04:43:03;;;;;;;77.37;37.03;;;4.80;63.80;;;;;;5067749;28;21022;-58
2022/03/19 04:45:29;;;;;;;69.13;35.87;;;4.80;63.90;;;;;;5065056;28;20924;-57
2022/03/19 04:47:55;;;;;;;75.00;38.70;;;4.80;64.20;;;;;;5069120;28;20547;-57
2022/03/19 04:50:21;;;;;;;74.93;36.43;;;4.80;64.10;;;;;;5060755;28;20178;-57
2022/03/19 04:52:48;;;;;;;69.97;35.37;;;4.70;64.20;;;;;;5052289;28;20472;-58
2022/03/19 04:55:14;;;;;;;70.07;35.83;;;4.70;64.10;;;;;;5064925;28;20432;-58
2022/03/19 04:57:40;;;;;;;74.20;36.30;;;4.70;64.40;;;;;;5062406;28;20501;-57
2022/03/19 05:00:08;;;;;;;81.60;35.77;;;4.70;64.70;;;;;;5066956;28;20512;-58
2022/03/19 05:02:34;;;;;;;74.17;37.57;;;4.70;64.70;;;;;;5054443;28;20538;-59
2022/03/19 05:05:00;;;;;;;86.27;37.53;;;4.70;64.70;;;;;;5063812;28;20433;-59
2022/03/19 05:07:26;;;;;;;77.00;36.37;;;4.70;64.80;;;;;;5064445;28;20461;-58
2022/03/19 05:12:42;;;;;;;73.90;35.90;;;4.60;65.00;;;;;;5068342;28;21003;-58
2022/03/19 05:15:13;;;;;;;71.23;35.73;;;4.60;65.10;;;;;;5066058;28;20458;-58
2022/03/19 05:17:40;;;;;;;79.40;35.07;;;4.60;64.90;;;;;;5061297;28;20983;-60
2022/03/19 05:20:06;;;;;;;70.03;36.50;;;4.50;65.30;;;;;;5069192;28;20522;-57
2022/03/19 05:22:32;;;;;;;69.70;35.37;;;4.50;65.50;;;;;;5065678;28;20955;-58
2022/03/19 05:24:58;;;;;;;81.00;36.00;;;4.50;65.50;;;;;;5065318;28;20485;-58
2022/03/19 05:27:24;;;;;;;76.43;37.90;;;4.50;65.60;;;;;;5064225;28;20198;-59
2022/03/19 05:29:50;;;;;;;78.43;36.07;;;4.50;65.80;;;;;;5069422;28;20170;-59
2022/03/19 05:32:16;;;;;;;70.07;35.93;;;4.50;65.90;;;;;;5067945;28;20429;-58
2022/03/19 05:34:43;;;;;;;74.73;35.90;;;4.50;65.70;;;;;;5064493;28;20597;-58
2022/03/19 05:37:09;;;;;;;69.00;34.70;;;4.50;65.80;;;;;;5069278;28;20420;-58
2022/03/19 05:39:36;;;;;;;81.67;38.00;;;4.50;65.70;;;;;;5065193;28;20911;-58
2022/03/19 05:42:02;;;;;;;80.83;36.30;;;4.50;65.60;;;;;;5066264;28;20433;-59
2022/03/19 05:44:28;;;;;;;73.60;34.70;;;4.50;66.00;;;;;;5059959;28;20429;-58
2022/03/19 05:46:54;;;;;;;71.30;34.90;;;4.50;66.10;;;;;;5069612;28;20458;-59
2022/03/19 05:49:19;;;;;;;74.50;35.27;;;4.50;66.00;;;;;;5066301;28;20233;-57
2022/03/19 05:51:46;;;;;;;73.93;35.63;;;4.40;65.90;;;;;;5064812;28;20185;-58
2022/03/19 05:54:11;;;;;;;69.20;35.50;;;4.40;66.20;;;;;;5054102;28;20369;-58
2022/03/19 05:56:37;;;;;;;73.40;37.30;;;4.40;66.30;;;;;;5072267;28;20508;-58
2022/03/19 05:59:04;;;;;;;74.43;36.27;;;4.40;66.40;;;;;;5070745;28;20186;-59
2022/03/19 06:01:30;;;;;;;70.03;34.90;;;4.40;66.40;;;;;;5070141;28;20429;-58
2022/03/19 06:03:57;;;;;;;68.90;34.00;;;4.40;66.50;;;;;;5064031;28;21014;-58
2022/03/19 06:06:23;;;;;;;65.57;35.47;;;4.30;66.50;;;;;;5072846;28;20175;-59
2022/03/19 06:08:49;;;;;;;65.70;33.33;;;4.30;66.60;;;;;;5065197;28;20464;-59
2022/03/19 06:11:15;;;;;;;75.67;34.23;;;4.30;66.60;;;;;;5069054;28;20451;-58
2022/03/19 06:13:41;;;;;;;66.67;34.50;;;4.30;66.50;;;;;;5064948;28;20566;-59
2022/03/19 06:16:07;;;;;;;75.43;37.47;;;4.30;66.30;;;;;;5071315;28;20817;-58
2022/03/19 06:18:33;;;;;;;70.93;35.73;;;4.30;66.40;;;;;;5082762;28;20462;-58
2022/03/19 06:20:59;;;;;;;68.30;35.47;;;4.30;66.40;;;;;;5072354;28;20593;-58
2022/03/19 06:23:24;;;;;;;68.47;34.77;;;4.40;66.90;;;;;;5071685;28;20192;-58
2022/03/19 06:25:51;;;;;;;75.50;36.13;;;4.40;66.20;;;;;;5069634;28;20198;-58
2022/03/19 06:28:17;;;;;;;69.67;35.47;;;4.50;66.10;;;;;;5063321;28;20601;-58
2022/03/19 06:30:44;;;;;;;65.93;33.20;;;4.60;65.50;;;;;;5068311;28;20420;-59
2022/03/19 06:33:12;;;;;;;76.00;34.53;;;4.70;65.10;;;;;;5071232;28;20451;-59
2022/03/19 06:38:25;;;;;;;65.77;33.80;;;4.80;64.00;;;;;;5064637;28;20432;-59
2022/03/19 06:40:51;;;;;;;71.77;35.57;;;4.80;63.50;;;;;;5065629;28;21105;-59
2022/03/19 06:43:16;;;;;;;70.57;33.47;;;4.90;63.00;;;;;;5069862;28;20490;-60
2022/03/19 06:45:42;;;;;;;66.33;33.03;;;5.00;62.70;;;;;;5069777;28;20187;-59
2022/03/19 06:48:08;;;;;;;66.10;32.97;;;5.10;62.40;;;;;;5066315;28;20706;-58
2022/03/19 06:50:34;;;;;;;60.80;31.57;;;5.20;61.70;;;;;;5071099;28;20170;-57
2022/03/19 06:53:01;;;;;;;63.93;32.77;;;5.30;61.40;;;;;;5071224;28;20194;-58
2022/03/19 06:55:27;;;;;;;62.37;32.67;;;5.30;60.50;;;;;;5067520;28;20431;-58
2022/03/19 06:57:53;;;;;;;60.50;31.03;;;5.40;60.30;;;;;;5069552;28;20803;-59
2022/03/19 07:00:19;;;;;;;64.80;32.63;;;5.40;60.00;;;;;;5061727;28;20186;-59
2022/03/19 07:02:51;;;;;;;64.87;32.57;;;5.50;59.90;;;;;;5062350;28;20206;-58
2022/03/19 07:05:24;;;;;;;62.67;30.60;;;5.50;59.60;;;;;;5064098;28;20189;-59
2022/03/19 07:07:51;;;;;;;65.10;31.80;;;5.60;59.40;;;;;;5054434;28;20996;-58
2022/03/19 07:10:18;;;;;;;66.17;32.70;;;5.70;59.00;;;;;;5069015;28;20433;-59
2022/03/19 07:12:57;;;;;;;59.97;32.50;;;5.70;58.70;;;;;;5068462;28;20812;-60
2022/03/19 07:15:30;;;;;;;61.90;30.10;;;5.80;58.40;;;;;;5070830;28;20499;-59
2022/03/19 07:18:00;;;;;;;62.37;31.33;;;5.80;58.00;;;;;;5069270;28;20425;-58
2022/03/19 07:20:27;;;;;;;56.00;29.87;;;5.90;57.90;;;;;;5060538;28;20442;-58
2022/03/19 07:23:06;;;;;;;63.07;31.53;;;6.00;57.60;;;;;;5068669;28;20930;-58
2022/03/19 07:25:31;;;;;;;56.83;30.17;;;6.10;57.30;;;;;;5069585;28;20438;-59
2022/03/19 07:28:03;;;;;;;53.80;28.13;;;6.10;57.10;;;;;;5069649;28;20551;-59
2022/03/19 07:30:30;;;;;;;55.93;30.60;;;6.20;56.50;;;;;;5067978;28;20178;-58
2022/03/19 07:32:56;;;;;;;63.80;30.80;;;6.20;56.40;;;;;;5066538;28;20453;-58
2022/03/19 07:35:21;;;;;;;59.43;31.47;;;6.30;56.40;;;;;;5067198;28;20482;-58
2022/03/19 07:37:47;;;;;;;58.70;30.13;;;6.30;56.10;;;;;;5056559;28;20429;-58
2022/03/19 07:40:15;;;;;;;59.30;30.43;;;6.40;56.00;;;;;;5057253;28;20181;-59
2022/03/19 07:42:42;;;;;;;54.47;29.20;;;6.50;55.60;;;;;;5067061;28;20204;-58
2022/03/19 07:45:08;;;;;;;52.90;28.20;;;6.50;55.30;;;;;;5069779;28;20428;-58
2022/03/19 07:47:35;;;;;;;57.23;29.03;;;6.60;55.30;;;;;;5069535;28;20451;-59
2022/03/19 07:50:01;;;;;;;51.17;27.43;;;6.60;54.30;;;;;;5069857;28;20432;-59
2022/03/19 07:52:30;;;;;;;58.30;30.03;;;6.70;54.10;;;;;;5065153;28;20473;-59
2022/03/19 07:54:55;;;;;;;61.70;30.37;;;6.70;54.40;;;;;;5068325;28;20428;-59
2022/03/19 07:57:24;;;;;;;53.20;28.90;;;6.80;54.50;;;;;;5065436;28;21599;-58
2022/03/19 07:59:50;;;;;;;53.33;29.00;;;6.80;54.00;;;;;;5058857;28;20240;-60
2022/03/19 08:02:17;;;;;;;53.93;28.67;;;6.90;53.30;;;;;;5054449;28;21012;-59
2022/03/19 08:04:43;;;;;;;50.33;27.30;;;6.90;53.20;;;;;;5063516;28;20604;-60
2022/03/19 08:07:08;;;;;;;54.63;28.20;;;6.90;54.50;;;;;;5062013;28;20555;-60
2022/03/19 08:09:36;;;;;;;53.97;28.00;;;7.10;53.90;;;;;;5068970;28;20181;-61
2022/03/19 08:12:01;;;;;;;54.83;28.30;;;7.20;52.70;;;;;;5062462;28;20182;-62
2022/03/19 08:14:29;;;;;;;55.90;29.83;;;7.30;51.80;;;;;;5061796;28;20432;-62
2022/03/19 08:16:55;;;;;;;55.27;29.13;;;7.30;51.80;;;;;;5064674;28;20735;-62
2022/03/19 08:19:24;;;;;;;47.93;25.77;;;7.30;51.50;;;;;;5056152;28;20444;-62
2022/03/19 08:21:52;;;;;;;53.97;29.57;;;7.30;51.60;;;;;;5061110;28;20436;-60
2022/03/19 08:24:19;;;;;;;50.63;27.13;;;7.30;51.80;;;;;;5061495;28;20453;-60
2022/03/19 08:26:46;;;;;;;54.97;28.60;;;7.30;51.70;;;;;;5061749;28;20436;-61
2022/03/19 08:29:12;;;;;;;48.87;27.57;;;7.40;51.40;;;;;;5056562;28;20453;-60
2022/03/19 08:31:37;;;;;;;52.97;27.27;;;7.40;51.10;;;;;;5062048;28;20424;-61
2022/03/19 08:34:03;;;;;;;51.93;27.90;;;7.40;51.20;;;;;;5064290;28;20457;-60
2022/03/19 08:36:29;;;;;;;54.03;28.77;;;7.50;51.00;;;;;;5059813;28;20270;-61
2022/03/19 08:41:39;;;;;;;54.07;28.60;;;7.60;50.90;;;;;;5056744;28;20516;-60
2022/03/19 08:44:05;;;;;;;52.90;29.00;;;7.70;51.00;;;;;;5060071;28;20528;-61
2022/03/19 08:46:31;;;;;;;46.40;26.27;;;7.70;50.40;;;;;;5064816;28;20181;-60
2022/03/19 08:48:58;;;;;;;45.70;26.87;;;7.80;50.30;;;;;;5060288;28;20492;-60
2022/03/19 08:51:41;;;;;;;53.90;27.67;;;7.80;50.10;;;;;;5055994;28;20425;-61
2022/03/19 08:54:10;;;;;;;52.83;28.60;;;7.90;49.90;;;;;;5059315;28;20206;-60
2022/03/19 08:56:36;;;;;;;49.13;26.97;;;7.90;49.80;;;;;;5059752;28;20440;-60
2022/03/19 08:59:03;;;;;;;50.10;27.57;;;8.00;49.30;;;;;;5061563;28;20437;-60
2022/03/19 09:01:29;;;;;;;48.67;27.50;;;8.10;49.40;;;;;;5051673;28;20430;-60
2022/03/19 09:03:54;;;;;;;56.93;27.63;;;8.20;49.40;;;;;;5057938;28;20461;-60
2022/03/19 09:06:20;;;;;;;50.30;26.23;;;8.20;49.10;;;;;;5057996;28;20437;-60
2022/03/19 09:08:47;;;;;;;55.20;27.43;;;8.40;48.50;;;;;;5062158;28;20206;-60
2022/03/19 09:11:12;;;;;;;50.93;29.07;;;8.40;48.90;;;;;;5057616;28;20176;-59
2022/03/19 09:13:39;;;;;;;49.57;27.07;;;8.50;48.50;;;;;;5061005;28;20524;-60
2022/03/19 09:16:06;;;;;;;48.90;27.80;;;8.50;48.50;;;;;;5059508;28;20433;-60
2022/03/19 09:18:32;;;;;;;48.97;27.30;;;8.60;48.20;;;;;;5059617;28;20428;-60
2022/03/19 09:20:58;;;;;;;54.20;30.43;;;8.70;48.10;;;;;;5062405;28;20456;-59
2022/03/19 09:23:24;;;;;;;60.17;29.60;;;8.80;48.00;;;;;;5056188;28;20452;-60
2022/03/19 09:25:50;;;;;;;64.10;28.60;;;8.90;48.30;;;;;;5061308;28;20441;-60
2022/03/19 09:28:15;;;;;;;54.50;28.87;;;9.00;47.90;;;;;;5064016;28;20229;-60
2022/03/19 09:30:41;;;;;;;50.10;27.70;;;9.10;48.00;;;;;;5058827;28;20439;-61
2022/03/19 09:33:07;;;;;;;49.97;27.87;;;9.20;47.40;;;;;;5061286;28;20569;-59
2022/03/19 09:35:33;;;;;;;50.00;27.80;;;9.30;47.40;;;;;;5059174;28;20955;-59
2022/03/19 09:37:59;;;;;;;49.33;27.53;;;9.40;47.60;;;;;;5058300;28;20442;-66
2022/03/19 09:40:25;;;;;;;63.23;29.70;;;9.60;47.60;;;;;;5063588;28;20467;-61
2022/03/19 09:42:52;;;;;;;53.07;28.23;;;9.70;47.40;;;;;;5060491;28;20217;-63
2022/03/19 09:45:19;;;;;;;54.13;29.70;;;9.80;47.10;;;;;;5061691;28;20451;-62
2022/03/19 09:47:45;;;;;;;53.17;29.40;;;10.00;46.20;;;;;;5057147;28;20455;-63
2022/03/19 09:50:11;;;;;;;47.53;30.07;;;10.10;45.20;;;;;;5058246;28;20440;-67
2022/03/19 09:52:37;;;;;;;48.83;29.17;;;10.10;44.50;;;;;;5060137;28;20457;-60
2022/03/19 09:55:04;;;;;;;52.33;31.10;;;10.20;44.40;;;;;;5061859;28;20178;-61
2022/03/19 09:57:30;;;;;;;54.83;30.67;;;10.20;44.20;;;;;;5063938;28;20432;-57
2022/03/19 09:59:57;;;;;;;49.13;29.50;;;10.10;43.80;;;;;;5062491;28;20463;-60
2022/03/19 10:02:23;;;;;;;46.93;28.67;;;10.10;43.70;;;;;;5063321;28;20722;-62
2022/03/19 10:04:57;;;;;;;46.20;27.00;;;10.10;43.80;;;;;;5040286;28;20440;-60
2022/03/19 10:10:08;;;;;;;51.00;29.30;;;10.30;44.50;;;;;;5058594;28;20431;-61
2022/03/19 10:12:34;;;;;;;53.63;28.63;;;10.40;44.60;;;;;;5053707;28;21085;-62
2022/03/19 10:15:00;;;;;;;50.73;29.37;;;10.50;44.00;;;;;;5054171;28;20440;-61
2022/03/19 10:17:32;;;;;;;50.67;29.03;;;10.70;44.00;;;;;;5052014;28;20217;-60
2022/03/19 10:20:00;;;;;;;50.80;30.13;;;10.90;44.10;;;;;;5054057;28;20178;-59
2022/03/19 10:22:28;;;;;;;56.27;31.00;;;11.00;44.20;;;;;;5057671;28;20488;-60
2022/03/19 10:25:17;;;;;;;53.23;30.13;;;11.20;43.70;;;;;;5057678;28;20512;-61
2022/03/19 10:27:44;;;;;;;53.80;29.40;;;11.30;43.10;;;;;;5058950;28;20464;-60
2022/03/19 10:30:16;;;;;;;49.87;28.57;;;11.40;42.20;;;;;;5060700;28;20437;-58
2022/03/19 10:32:44;;;;;;;48.83;28.50;;;11.40;41.40;;;;;;5060029;28;20480;-61
2022/03/19 10:35:26;;;;;;;47.73;27.97;;;11.50;41.90;;;;;;5057562;28;20432;-60
2022/03/19 10:37:53;;;;;;;47.13;28.63;;;11.60;42.20;;;;;;5066901;28;20480;-61
2022/03/19 10:40:19;;;;;;;44.50;27.83;;;11.70;41.30;;;;;;5054059;28;20476;-60
2022/03/19 10:42:45;;;;;;;48.70;28.07;;;11.80;40.80;;;;;;5046513;28;20495;-60
2022/03/19 10:45:19;;;;;;;45.50;27.90;;;11.80;39.90;;;;;;5058710;28;20971;-61
2022/03/19 10:47:47;;;;;;;44.67;26.00;;;11.80;39.00;;;;;;5059687;28;20205;-61
2022/03/19 10:50:22;;;;;;;47.63;27.87;;;11.90;39.50;;;;;;5056997;28;20432;-61
2022/03/19 10:52:52;;;;;;;51.33;28.23;;;11.90;40.00;;;;;;5057510;28;20462;-60
2022/03/19 10:55:19;;;;;;;51.40;30.60;;;12.10;40.40;;;;;;5056887;28;20428;-61
2022/03/19 10:57:46;;;;;;;51.87;31.57;;;12.10;40.10;;;;;;5055140;28;20444;-60
2022/03/19 11:00:13;;;;;;;48.90;28.37;;;12.20;40.70;;;;;;5055213;28;21039;-61
2022/03/19 11:02:48;;;;;;;48.23;27.43;;;12.30;40.00;;;;;;5056427;28;20464;-57
2022/03/19 11:05:17;;;;;;;53.13;26.40;;;12.40;38.30;;;;;;5057577;28;20435;-60
2022/03/19 11:07:44;;;;;;;46.87;26.73;;;12.40;37.30;;;;;;5060075;28;20475;-60
2022/03/19 11:10:11;;;;;;;49.33;28.00;;;12.50;37.10;;;;;;5058182;28;20432;-59
2022/03/19 11:12:42;;;;;;;45.03;26.00;;;12.50;37.30;;;;;;5057247;28;20453;-59
2022/03/19 11:15:13;;;;;;;47.07;28.23;;;12.60;37.80;;;;;;5059989;28;20913;-59
2022/03/19 11:17:42;;;;;;;47.60;27.50;;;12.70;36.60;;;;;;5056831;28;20440;-59
2022/03/19 11:20:11;;;;;;;44.37;27.70;;;12.80;36.80;;;;;;5055624;28;20444;-58
2022/03/19 11:22:39;;;;;;;43.80;28.00;;;12.80;36.20;;;;;;5060883;28;20455;-58
2022/03/19 11:25:11;;;;;;;46.30;27.10;;;12.90;38.00;;;;;;5055729;28;20537;-59
2022/03/19 11:27:39;;;;;;;46.97;28.13;;;13.10;39.30;;;;;;5056132;28;21063;-61
2022/03/19 11:30:06;;;;;;;48.40;27.40;;;13.40;40.30;;;;;;5055350;28;20432;-59
2022/03/19 11:32:32;;;;;;;46.10;27.60;;;13.70;39.50;;;;;;5053895;28;21369;-59
2022/03/19 11:34:59;;;;;;;50.67;28.30;;;13.90;38.60;;;;;;5053939;28;21524;-58
2022/03/19 11:38:02;;;;;;;44.20;27.70;;;14.00;35.50;;;;;;5054095;28;20171;-59
2022/03/19 11:40:29;;;;;;;47.13;25.83;;;14.10;35.50;;;;;;5026402;28;20531;-57
2022/03/19 11:42:56;;;;;;;47.67;26.97;;;14.20;34.90;;;;;;5058586;28;20453;-60
2022/03/19 11:45:22;;;;;;;44.37;26.97;;;14.20;34.20;;;;;;5062990;28;20460;-59
2022/03/19 11:47:48;;;;;;;45.17;26.27;;;14.30;34.70;;;;;;5063731;28;20539;-61
2022/03/19 11:50:18;;;;;;;39.93;24.97;;;14.40;34.30;;;;;;5061470;28;20210;-61
2022/03/19 11:52:44;;;;;;;49.10;28.70;;;14.50;33.70;;;;;;5061673;28;20210;-62
2022/03/19 11:55:11;;;;;;;41.10;25.47;;;14.50;33.70;;;;;;5091532;22;20605;-58
2022/03/19 11:57:45;;;;;;;49.60;26.70;;;14.70;34.20;;;;;;5036738;28;20572;-61
2022/03/19 12:00:14;;;;;;;44.57;26.00;;;14.90;34.20;;;;;;5041123;28;20468;-63
2022/03/19 12:03:07;;;;;;;39.67;25.53;;;15.00;33.60;;;;;;5038163;28;20426;-58
2022/03/19 12:05:35;;;;;;;39.60;24.47;;;15.20;34.00;;;;;;5043587;28;20456;-59
2022/03/19 12:08:16;;;;;;;42.90;26.73;;;15.30;34.30;;;;;;5051189;28;21225;-60
2022/03/19 12:11:02;;;;;;;37.40;23.93;;;15.40;33.70;;;;;;5050527;28;20440;-62
2022/03/19 12:13:28;;;;;;;40.13;24.30;;;15.40;33.00;;;;;;5039638;28;20425;-61
2022/03/19 12:15:57;;;;;;;38.67;24.37;;;15.50;33.00;;;;;;5052570;28;21000;-60
2022/03/19 12:18:39;;;;;;;37.93;23.23;;;15.60;32.90;;;;;;5055893;28;20307;-55
2022/03/19 12:21:15;;;;;;;33.00;22.40;;;15.60;32.80;;;;;;5057378;28;20428;-58
2022/03/19 12:24:02;;;;;;;36.97;22.53;;;15.70;32.10;;;;;;5061136;28;21038;-61
2022/03/19 12:26:39;;;;;;;37.07;23.63;;;15.80;31.60;;;;;;5054734;28;20882;-61
2022/03/19 12:29:06;;;;;;;38.00;23.97;;;15.80;31.10;;;;;;5058570;28;20461;-60
2022/03/19 12:31:38;;;;;;;42.23;23.20;;;15.90;31.40;;;;;;5064058;28;20416;-62
2022/03/19 12:34:05;;;;;;;38.07;23.90;;;15.80;31.20;;;;;;5044667;28;20771;-59
2022/03/19 12:36:32;;;;;;;34.43;23.60;;;15.90;32.00;;;;;;5053406;28;20857;-60
2022/03/19 12:39:04;;;;;;;41.20;23.27;;;16.00;31.90;;;;;;5054116;28;20482;-61
2022/03/19 12:41:31;;;;;;;39.37;23.90;;;16.10;31.80;;;;;;5062457;28;20424;-59
2022/03/19 12:44:21;;;;;;;41.47;25.63;;;16.20;32.00;;;;;;5060876;28;20523;-64
2022/03/19 12:46:56;;;;;;;41.80;24.73;;;16.30;31.80;;;;;;5058638;28;20868;-57
2022/03/19 12:49:22;;;;;;;41.87;25.10;;;16.20;31.70;;;;;;5057765;28;20444;-55
2022/03/19 12:51:49;;;;;;;43.77;24.73;;;16.20;32.10;;;;;;5062807;28;20412;-58
2022/03/19 12:54:29;;;;;;;40.00;23.73;;;16.00;32.40;;;;;;5053891;28;20455;-58